Time;durP1;ratioP1;P1;durP2;ratioP2;P2;SDS_P1;SDS_P2;PMS_P1;PMS_P2;Temp;Humidity;BMP_temperature;BMP_pressure;BME280_temperature;BME280_humidity;BME280_pressure;Samples;Min_cycle;Max_cycle;Signal;HPM_P1;HPM_P2
2021/12/01 00:01:06;;;;;;;6.97;3.60;;;;;;;-1.05;100.00;98325.47;1674083;86;21020;-70
2021/12/01 00:03:32;;;;;;;4.83;2.70;;;;;;;-1.09;100.00;98333.38;1674089;86;21043;-72
2021/12/01 00:05:59;;;;;;;3.73;2.57;;;;;;;-1.10;100.00;98336.98;1674047;86;21075;-72
2021/12/01 00:08:26;;;;;;;3.93;2.47;;;;;;;-1.10;100.00;98333.01;1673766;86;21096;-71
2021/12/01 00:10:53;;;;;;;6.03;2.87;;;;;;;-1.11;100.00;98334.83;1674237;86;21002;-71
2021/12/01 00:13:20;;;;;;;5.27;3.20;;;;;;;-1.15;100.00;98328.14;1674111;86;21055;-71
2021/12/01 00:15:49;;;;;;;8.50;3.77;;;;;;;-1.16;100.00;98330.42;1673979;86;21138;-70
2021/12/01 00:18:15;;;;;;;13.27;4.83;;;;;;;-1.20;100.00;98326.39;1673812;86;21561;-71
2021/12/01 00:20:42;;;;;;;15.17;5.77;;;;;;;-1.24;100.00;98337.76;1680004;85;21520;-71
2021/12/01 00:23:09;;;;;;;18.20;7.40;;;;;;;-1.27;100.00;98338.03;1682104;85;21489;-71
2021/12/01 00:25:39;;;;;;;15.97;7.50;;;;;;;-1.30;100.00;98342.27;1659132;85;21079;-71
2021/12/01 00:28:05;;;;;;;19.60;7.23;;;;;;;-1.31;100.00;98347.24;1710272;82;21031;-71
2021/12/01 00:30:32;;;;;;;17.17;7.53;;;;;;;-1.31;100.00;98345.92;1747937;82;21034;-70
2021/12/01 00:32:59;;;;;;;20.50;7.63;;;;;;;-1.29;100.00;98339.13;1737075;82;21512;-71
2021/12/01 00:35:27;;;;;;;18.77;8.13;;;;;;;-1.26;100.00;98340.19;1690875;84;21115;-71
2021/12/01 00:37:54;;;;;;;19.40;8.40;;;;;;;-1.24;100.00;98351.02;1714466;84;21034;-71
2021/12/01 00:40:21;;;;;;;17.73;8.13;;;;;;;-1.22;100.00;98347.73;1714665;84;20986;-72
2021/12/01 00:42:48;;;;;;;18.37;7.60;;;;;;;-1.19;100.00;98351.45;1714143;84;21065;-71
2021/12/01 00:45:20;;;;;;;18.53;7.63;;;;;;;-1.17;100.00;98352.14;1714763;84;20986;-71
2021/12/01 00:47:50;;;;;;;18.17;7.67;;;;;;;-1.12;100.00;98345.58;1714463;84;21034;-71
2021/12/01 00:50:27;;;;;;;17.57;7.67;;;;;;;-1.08;100.00;98348.30;1714812;84;21034;-71
2021/12/01 00:52:59;;;;;;;20.17;7.00;;;;;;;-1.07;100.00;98346.83;1634605;88;21037;-71
2021/12/01 00:55:26;;;;;;;17.50;7.07;;;;;;;-1.03;100.00;98340.76;1659790;85;21070;-72
2021/12/01 00:57:52;;;;;;;16.97;6.83;;;;;;;-1.01;100.00;98340.98;1685484;84;21015;-70
2021/12/01 01:00:22;;;;;;;14.23;5.90;;;;;;;-0.98;100.00;98337.20;1685438;85;21007;-71
2021/12/01 01:02:49;;;;;;;16.30;7.10;;;;;;;-0.97;100.00;98334.41;1643472;87;21545;-71
2021/12/01 01:05:16;;;;;;;15.23;6.40;;;;;;;-0.94;100.00;98335.94;1643258;87;21601;-71
2021/12/01 01:07:43;;;;;;;16.03;5.93;;;;;;;-0.97;100.00;98334.41;1643509;87;21039;-71
2021/12/01 01:10:17;;;;;;;20.77;6.53;;;;;;;-1.00;100.00;98325.40;1643407;87;21048;-71
2021/12/01 01:18:17;;;;;;;10.70;4.90;;;;;;;-1.14;100.00;98320.52;1643500;87;21586;-70
2021/12/01 01:20:44;;;;;;;10.20;5.00;;;;;;;-1.19;100.00;98324.06;1645685;87;21079;-70
2021/12/01 01:23:10;;;;;;;9.57;5.10;;;;;;;-1.23;100.00;98322.67;1646717;87;21097;-73
2021/12/01 01:25:37;;;;;;;8.10;4.97;;;;;;;-1.26;100.00;98330.41;1646387;86;21056;-72
2021/12/01 01:28:06;;;;;;;8.77;5.00;;;;;;;-1.31;100.00;98338.43;1646813;87;21056;-72
2021/12/01 01:30:32;;;;;;;7.40;4.53;;;;;;;-1.35;100.00;98343.17;1646520;87;21056;-71
2021/12/01 01:33:00;;;;;;;10.03;5.20;;;;;;;-1.39;100.00;98339.13;1647097;86;21064;-70
2021/12/01 01:35:27;;;;;;;11.40;5.47;;;;;;;-1.43;100.00;98338.56;1648124;87;21082;-71
2021/12/01 01:37:54;;;;;;;10.93;5.30;;;;;;;-1.47;100.00;98330.54;1647831;87;21506;-72
2021/12/01 01:40:21;;;;;;;10.50;5.23;;;;;;;-1.50;100.00;98341.41;1647812;87;21044;-72
2021/12/01 01:42:48;;;;;;;11.40;5.50;;;;;;;-1.53;100.00;98338.52;1641025;86;21598;-71
2021/12/01 01:45:15;;;;;;;11.63;5.73;;;;;;;-1.55;100.00;98347.11;1636522;88;21162;-71
2021/12/01 01:47:59;;;;;;;10.47;5.77;;;;;;;-1.55;100.00;98346.27;1636450;88;21629;-71
2021/12/01 01:50:34;;;;;;;10.37;5.53;;;;;;;-1.56;100.00;98349.42;1677705;84;21007;-71
2021/12/01 01:52:48;;;;;;;11.80;5.57;;;;;;;-1.55;100.00;98347.11;1682890;85;21011;-71
2021/12/01 01:55:14;;;;;;;12.80;6.10;;;;;;;-1.53;100.00;98351.78;1686159;85;21043;-72
2021/12/01 01:57:44;;;;;;;13.77;6.73;;;;;;;-1.53;100.00;98350.95;1686233;85;21505;-71
2021/12/01 02:00:12;;;;;;;14.60;6.70;;;;;;;-1.55;100.00;98344.45;1749332;81;20993;-72
2021/12/01 02:02:42;;;;;;;15.50;7.10;;;;;;;-1.58;100.00;98350.02;1770923;81;21018;-72
2021/12/01 02:05:09;;;;;;;16.57;7.13;;;;;;;-1.60;100.00;98358.59;1770924;81;20986;-70
2021/12/01 02:07:36;;;;;;;12.80;7.17;;;;;;;-1.62;100.00;98354.42;1770752;81;21453;-71
2021/12/01 02:10:05;;;;;;;15.53;7.60;;;;;;;-1.64;100.00;98351.07;1770738;81;21022;-72
2021/12/01 02:12:32;;;;;;;11.90;6.90;;;;;;;-1.65;100.00;98354.68;1770809;81;21025;-71
2021/12/01 02:14:59;;;;;;;13.97;7.87;;;;;;;-1.67;100.00;98349.52;1771053;81;20958;-70
2021/12/01 02:17:26;;;;;;;15.73;7.80;;;;;;;-1.68;100.00;98345.66;1770671;81;21030;-72
2021/12/01 02:19:53;;;;;;;13.17;7.37;;;;;;;-1.70;100.00;98345.80;1775411;80;20940;-72
2021/12/01 02:22:19;;;;;;;14.57;7.20;;;;;;;-1.70;100.00;98347.13;1781806;80;21042;-72
2021/12/01 02:24:47;;;;;;;13.80;7.60;;;;;;;-1.72;100.00;98349.07;1781596;80;20960;-72
2021/12/01 02:27:14;;;;;;;15.50;7.73;;;;;;;-1.73;100.00;98341.62;1781949;80;21042;-72
2021/12/01 02:29:40;;;;;;;15.10;8.00;;;;;;;-1.76;100.00;98352.48;1781760;80;21015;-71
2021/12/01 02:32:08;;;;;;;16.73;8.23;;;;;;;-1.78;100.00;98348.30;1781945;80;20931;-73
2021/12/01 02:34:38;;;;;;;16.93;8.47;;;;;;;-1.79;100.00;98354.09;1781463;80;21497;-72
2021/12/01 02:37:04;;;;;;;14.67;7.90;;;;;;;-1.81;100.00;98352.53;1744455;82;20998;-72
2021/12/01 02:39:32;;;;;;;15.00;7.70;;;;;;;-1.84;100.00;98361.60;1744433;81;21046;-71
2021/12/01 02:42:05;;;;;;;16.47;8.30;;;;;;;-1.86;100.00;98352.95;1784071;80;20999;-70
2021/12/01 02:44:29;;;;;;;15.23;8.07;;;;;;;-1.87;100.00;98353.08;1753925;82;21563;-72
2021/12/01 02:46:56;;;;;;;15.50;8.37;;;;;;;-1.92;100.00;98362.25;1758139;82;21033;-72
2021/12/01 02:49:24;;;;;;;16.50;8.40;;;;;;;-1.94;100.00;98364.20;1758318;81;21006;-72
2021/12/01 02:51:56;;;;;;;17.20;8.47;;;;;;;-1.96;100.00;98363.50;1758408;82;21444;-72
2021/12/01 02:54:24;;;;;;;15.17;8.53;;;;;;;-1.95;100.00;98369.63;1758638;82;21005;-72
2021/12/01 02:56:52;;;;;;;16.83;8.47;;;;;;;-1.96;100.00;98370.61;1758243;82;21002;-72
2021/12/01 02:59:18;;;;;;;18.10;9.53;;;;;;;-1.98;100.00;98372.06;1758290;82;20986;-71
2021/12/01 03:01:45;;;;;;;19.80;9.67;;;;;;;-1.98;100.00;98373.39;1758389;81;21025;-72
2021/12/01 03:04:13;;;;;;;20.03;10.00;;;;;;;-2.00;100.00;98380.64;1758195;82;20990;-71
2021/12/01 03:06:42;;;;;;;19.53;9.07;;;;;;;-2.00;100.00;98374.48;1739331;82;21015;-72
2021/12/01 03:09:09;;;;;;;18.20;8.60;;;;;;;-2.01;100.00;98370.17;1715318;82;21553;-72
2021/12/01 03:11:38;;;;;;;18.20;8.63;;;;;;;-2.03;100.00;98374.27;1739412;82;21074;-72
2021/12/01 03:14:12;;;;;;;15.97;8.43;;;;;;;-2.05;100.00;98367.41;1739370;82;21047;-72
2021/12/01 03:16:39;;;;;;;15.43;8.23;;;;;;;-2.06;100.00;98372.38;1651750;87;21037;-72
2021/12/01 03:19:05;;;;;;;14.67;8.30;;;;;;;-2.08;100.00;98376.97;1635836;88;21061;-72
2021/12/01 03:21:38;;;;;;;13.27;7.40;;;;;;;-2.10;100.00;98382.39;1682708;84;21065;-72
2021/12/01 03:24:05;;;;;;;15.40;8.13;;;;;;;-2.12;100.00;98382.52;1682693;85;21080;-72
2021/12/01 03:26:33;;;;;;;14.30;8.13;;;;;;;-2.14;100.00;98386.28;1682671;85;21044;-71
2021/12/01 03:29:01;;;;;;;14.60;8.23;;;;;;;-2.18;100.00;98389.67;1682636;85;21048;-74
2021/12/01 03:31:28;;;;;;;15.73;8.23;;;;;;;-2.20;100.00;98381.49;1682873;85;21032;-72
2021/12/01 03:33:55;;;;;;;16.23;7.97;;;;;;;-2.24;100.00;98379.59;1694774;84;21107;-71
2021/12/01 03:36:22;;;;;;;15.07;8.03;;;;;;;-2.27;100.00;98385.63;1700414;84;20978;-72
2021/12/01 03:38:50;;;;;;;13.97;7.87;;;;;;;-2.31;100.00;98388.53;1700331;84;21503;-73
2021/12/01 03:41:17;;;;;;;15.70;8.00;;;;;;;-2.34;100.00;98383.52;1700375;84;20976;-72
2021/12/01 03:43:47;;;;;;;17.63;8.70;;;;;;;-2.37;100.00;98379.80;1687756;84;21643;-72
2021/12/01 03:46:16;;;;;;;15.60;8.20;;;;;;;-2.40;100.00;98384.02;1684744;85;21592;-72
2021/12/01 03:48:43;;;;;;;15.00;7.80;;;;;;;-2.43;100.00;98390.06;1684748;85;21055;-71
2021/12/01 03:51:10;;;;;;;14.70;8.23;;;;;;;-2.45;100.00;98388.03;1685079;85;21006;-72
2021/12/01 03:53:38;;;;;;;16.00;8.23;;;;;;;-2.49;100.00;98384.80;1684615;85;21104;-72
2021/12/01 03:56:05;;;;;;;14.87;8.07;;;;;;;-2.51;100.00;98389.39;1684984;85;21002;-73
2021/12/01 03:58:32;;;;;;;14.43;8.10;;;;;;;-2.54;100.00;98387.83;1684916;85;21043;-72
2021/12/01 04:00:59;;;;;;;16.23;8.43;;;;;;;-2.56;100.00;98392.91;1682645;85;21055;-72
2021/12/01 04:03:25;;;;;;;15.03;8.60;;;;;;;-2.59;100.00;98394.48;1675804;86;21095;-72
2021/12/01 04:05:52;;;;;;;15.70;8.70;;;;;;;-2.61;100.00;98407.00;1676085;86;21036;-73
2021/12/01 04:08:18;;;;;;;15.27;8.13;;;;;;;-2.64;100.00;98409.89;1676064;86;21589;-72
2021/12/01 04:10:45;;;;;;;14.80;8.57;;;;;;;-2.66;100.00;98412.66;1676016;86;21051;-73
2021/12/01 04:13:12;;;;;;;16.47;8.07;;;;;;;-2.69;100.00;98415.59;1724769;80;20973;-72
2021/12/01 04:15:39;;;;;;;16.63;8.30;;;;;;;-2.71;100.00;98417.49;1787482;80;20974;-72
2021/12/01 04:18:05;;;;;;;16.73;8.60;;;;;;;-2.72;100.00;98419.31;1787376;80;20986;-72
2021/12/01 04:20:32;;;;;;;15.17;8.50;;;;;;;-2.72;100.00;98419.80;1783551;80;20932;-71
2021/12/01 04:22:59;;;;;;;15.27;8.70;;;;;;;-2.74;100.00;98420.41;1781720;80;20992;-73
2021/12/01 04:25:26;;;;;;;15.23;8.27;;;;;;;-2.77;100.00;98418.02;1782013;80;20995;-72
2021/12/01 04:27:53;;;;;;;16.17;8.70;;;;;;;-2.79;100.00;98418.63;1781714;80;21007;-73
2021/12/01 04:30:22;;;;;;;17.00;8.73;;;;;;;-2.80;100.00;98414.29;1781860;80;21002;-72
2021/12/01 04:32:50;;;;;;;14.73;8.33;;;;;;;-2.82;100.00;98422.84;1781650;80;21074;-72
2021/12/01 04:35:19;;;;;;;15.60;8.20;;;;;;;-2.83;100.00;98422.02;1744755;82;20966;-72
2021/12/01 04:37:46;;;;;;;17.27;8.50;;;;;;;-2.84;100.00;98422.13;1744710;82;20983;-73
2021/12/01 04:40:14;;;;;;;22.47;10.60;;;;;;;-2.85;100.00;98422.63;1781904;80;21528;-71
2021/12/01 04:42:40;;;;;;;21.70;12.33;;;;;;;-2.86;100.00;98419.61;1785068;80;21011;-72
2021/12/01 04:45:14;;;;;;;23.73;12.47;;;;;;;-2.88;100.00;98415.77;1795360;80;21045;-72
2021/12/01 04:47:41;;;;;;;20.87;11.73;;;;;;;-2.88;100.00;98420.22;1793291;80;21468;-72
2021/12/01 04:50:06;;;;;;;21.23;12.47;;;;;;;-2.91;100.00;98419.97;1793101;80;20959;-72
2021/12/01 04:52:35;;;;;;;22.30;12.40;;;;;;;-2.93;100.00;98424.55;1795449;80;21014;-72
2021/12/01 04:55:01;;;;;;;24.67;14.10;;;;;;;-2.96;100.00;98414.70;1795651;80;20995;-72
2021/12/01 04:57:28;;;;;;;24.50;14.73;;;;;;;-2.97;100.00;98421.81;1795676;80;21010;-73
2021/12/01 04:59:55;;;;;;;24.80;14.60;;;;;;;-2.99;100.00;98415.81;1795825;79;21503;-72
2021/12/01 05:02:22;;;;;;;23.77;13.97;;;;;;;-2.98;100.00;98422.77;1795819;80;21006;-72
2021/12/01 05:04:49;;;;;;;26.23;14.30;;;;;;;-2.98;100.00;98430.70;1795689;80;20994;-72
2021/12/01 05:07:16;;;;;;;25.13;14.23;;;;;;;-2.99;100.00;98435.64;1795657;80;21461;-71
2021/12/01 05:09:43;;;;;;;25.07;14.50;;;;;;;-3.01;100.00;98434.94;1795701;79;20995;-71
2021/12/01 05:12:12;;;;;;;26.53;15.27;;;;;;;-3.01;100.00;98436.26;1795648;80;21015;-73
2021/12/01 05:14:39;;;;;;;25.33;14.83;;;;;;;-3.01;100.00;98430.97;1778124;80;20965;-72
2021/12/01 05:17:06;;;;;;;24.03;14.63;;;;;;;-3.03;100.00;98429.40;1795500;80;20999;-74
2021/12/01 05:19:35;;;;;;;24.93;14.53;;;;;;;-3.03;100.00;98423.62;1795495;80;21492;-72
2021/12/01 05:22:02;;;;;;;28.03;15.07;;;;;;;-3.04;100.00;98431.70;1795605;80;20995;-73
2021/12/01 05:24:29;;;;;;;29.70;16.37;;;;;;;-3.06;100.00;98440.59;1795837;80;21508;-74
2021/12/01 05:26:56;;;;;;;27.30;15.60;;;;;;;-3.06;100.00;98449.02;1795710;79;21042;-72
2021/12/01 05:29:24;;;;;;;29.47;17.13;;;;;;;-3.08;100.00;98456.20;1795727;80;20998;-73
2021/12/01 05:31:52;;;;;;;24.90;14.50;;;;;;;-3.08;100.00;98461.03;1795555;80;21010;-73
2021/12/01 05:34:19;;;;;;;26.03;13.97;;;;;;;-3.08;100.00;98463.67;1795668;79;21069;-73
2021/12/01 05:36:46;;;;;;;24.13;13.93;;;;;;;-3.04;100.00;98463.44;1795728;80;20975;-72
2021/12/01 05:39:13;;;;;;;23.33;12.80;;;;;;;-3.00;100.00;98458.25;1795719;80;21016;-72
2021/12/01 05:41:40;;;;;;;23.77;12.73;;;;;;;-2.98;100.00;98465.08;1795761;80;21010;-72
2021/12/01 05:44:07;;;;;;;22.73;12.50;;;;;;;-2.97;100.00;98459.33;1785486;80;21018;-72
2021/12/01 05:46:34;;;;;;;20.83;11.47;;;;;;;-2.93;100.00;98463.39;1781991;80;21026;-72
2021/12/01 05:49:00;;;;;;;20.07;10.60;;;;;;;-2.89;100.00;98464.82;1782079;80;21022;-71
2021/12/01 05:51:27;;;;;;;18.40;10.53;;;;;;;-2.82;100.00;98462.03;1781996;80;20995;-72
2021/12/01 05:53:54;;;;;;;19.33;10.50;;;;;;;-2.69;100.00;98462.72;1782052;80;20968;-72
2021/12/01 05:56:20;;;;;;;19.43;9.70;;;;;;;-2.56;100.00;98464.36;1781736;80;21042;-73
2021/12/01 05:58:47;;;;;;;20.37;10.20;;;;;;;-2.50;100.00;98454.11;1781955;80;21038;-71
2021/12/01 06:01:14;;;;;;;19.73;10.27;;;;;;;-2.49;100.00;98455.78;1781893;80;20967;-71
2021/12/01 06:03:43;;;;;;;22.67;11.53;;;;;;;-2.48;100.00;98448.67;1781828;80;21000;-72
2021/12/01 06:06:10;;;;;;;21.33;11.03;;;;;;;-2.44;100.00;98446.61;1782022;80;21485;-72
2021/12/01 06:08:38;;;;;;;22.20;10.70;;;;;;;-2.44;100.00;98451.44;1770990;80;21027;-71
2021/12/01 06:11:05;;;;;;;20.67;10.93;;;;;;;-2.46;100.00;98449.87;1782004;80;20936;-72
2021/12/01 06:13:32;;;;;;;20.93;10.77;;;;;;;-2.42;100.00;98442.88;1781708;80;21039;-72
2021/12/01 06:15:59;;;;;;;22.53;11.43;;;;;;;-2.41;100.00;98440.57;1781814;80;21007;-73
2021/12/01 06:18:26;;;;;;;21.53;11.17;;;;;;;-2.42;100.00;98440.23;1781324;80;21493;-71
2021/12/01 06:20:53;;;;;;;23.33;12.47;;;;;;;-2.42;100.00;98441.55;1792033;80;21039;-69
2021/12/01 06:23:20;;;;;;;24.50;12.83;;;;;;;-2.41;100.00;98435.27;1803183;79;21495;-72
2021/12/01 06:25:47;;;;;;;22.07;11.67;;;;;;;-2.39;100.00;98427.20;1793570;79;21441;-71
2021/12/01 06:28:13;;;;;;;25.30;13.37;;;;;;;-2.36;100.00;98429.61;1781767;79;20960;-72
2021/12/01 06:30:40;;;;;;;23.10;13.77;;;;;;;-2.33;100.00;98432.84;1781724;80;21517;-71
2021/12/01 06:33:08;;;;;;;24.13;14.43;;;;;;;-2.30;100.00;98436.56;1781653;80;20956;-71
2021/12/01 06:35:35;;;;;;;28.30;16.30;;;;;;;-2.25;100.00;98432.67;1781926;79;21002;-71
2021/12/01 06:38:02;;;;;;;27.43;15.80;;;;;;;-2.24;100.00;98435.69;1781821;80;20975;-70
2021/12/01 06:40:30;;;;;;;28.37;17.10;;;;;;;-2.23;100.00;98436.89;1781764;80;21540;-72
2021/12/01 06:42:57;;;;;;;26.23;16.17;;;;;;;-2.19;100.00;98441.44;1777671;80;20947;-73
2021/12/01 06:45:23;;;;;;;27.47;15.93;;;;;;;-2.15;100.00;98433.09;1750698;81;21061;-73
2021/12/01 06:47:50;;;;;;;27.33;16.60;;;;;;;-2.10;100.00;98440.66;1748804;82;21542;-74
2021/12/01 06:50:17;;;;;;;25.43;14.97;;;;;;;-2.05;100.00;98433.16;1746680;82;21005;-73
2021/12/01 06:52:45;;;;;;;28.07;16.63;;;;;;;-2.02;100.00;98428.94;1746548;82;21046;-72
2021/12/01 06:55:11;;;;;;;31.80;18.07;;;;;;;-1.97;100.00;98433.33;1746878;81;21030;-73
2021/12/01 06:57:38;;;;;;;30.87;17.90;;;;;;;-1.94;100.00;98430.92;1746666;82;21005;-73
2021/12/01 07:00:08;;;;;;;30.10;19.50;;;;;;;-1.86;100.00;98435.09;1746572;82;20990;-72
2021/12/01 07:02:34;;;;;;;30.10;18.50;;;;;;;-1.79;100.00;98440.67;1746563;82;21049;-70
2021/12/01 07:05:02;;;;;;;27.53;16.97;;;;;;;-1.76;100.00;98444.39;1746482;82;21037;-70
2021/12/01 07:07:29;;;;;;;26.53;16.37;;;;;;;-1.71;100.00;98436.89;1746434;82;21033;-69
2021/12/01 07:09:56;;;;;;;27.17;15.77;;;;;;;-1.64;100.00;98433.23;1746255;81;21565;-69
2021/12/01 07:12:23;;;;;;;32.17;17.30;;;;;;;-1.58;100.00;98424.73;1749806;82;21052;-72
2021/12/01 07:14:51;;;;;;;28.43;17.67;;;;;;;-1.53;100.00;98432.63;1748528;82;21017;-74
2021/12/01 07:17:18;;;;;;;28.10;15.47;;;;;;;-1.48;100.00;98436.72;1753330;82;20970;-74
2021/12/01 07:19:45;;;;;;;27.53;14.87;;;;;;;-1.47;100.00;98429.95;1750558;82;20966;-72
2021/12/01 07:22:12;;;;;;;28.10;15.83;;;;;;;-1.43;100.00;98426.05;1750369;82;21021;-73
2021/12/01 07:24:39;;;;;;;27.77;14.50;;;;;;;-1.38;100.00;98426.95;1750971;82;21006;-73
2021/12/01 07:27:06;;;;;;;30.30;18.00;;;;;;;-1.31;100.00;98432.56;1750368;82;20990;-73
2021/12/01 07:32:07;;;;;;;18.43;9.67;;;;;;;-1.26;100.00;98417.92;1676135;85;21502;-73
2021/12/01 07:34:41;;;;;;;21.90;11.50;;;;;;;-1.19;100.00;98420.41;1676063;86;21039;-73
2021/12/01 07:37:02;;;;;;;34.60;18.93;;;;;;;-1.12;100.00;98419.36;1676087;86;21022;-73
2021/12/01 07:39:29;;;;;;;22.87;11.87;;;;;;;-1.04;100.00;98417.36;1676503;85;21100;-75
2021/12/01 07:41:56;;;;;;;20.23;9.63;;;;;;;-0.94;100.00;98422.17;1675837;86;21092;-75
2021/12/01 07:44:24;;;;;;;22.37;10.57;;;;;;;-0.90;100.00;98411.66;1692335;83;21044;-74
2021/12/01 07:46:51;;;;;;;17.60;9.03;;;;;;;-0.81;100.00;98418.78;1699871;84;20981;-73
2021/12/01 07:49:19;;;;;;;18.03;9.03;;;;;;;-0.73;100.00;98411.44;1703444;84;21061;-72
2021/12/01 07:51:46;;;;;;;20.17;9.77;;;;;;;-0.64;100.00;98405.78;1703105;84;21503;-73
2021/12/01 07:54:12;;;;;;;22.17;10.93;;;;;;;-0.55;100.00;98404.94;1703244;84;21001;-72
2021/12/01 07:56:39;;;;;;;27.20;11.83;;;;;;;-0.48;100.00;98403.42;1702994;84;21049;-71
2021/12/01 07:59:06;;;;;;;21.03;10.10;;;;;;;-0.44;100.00;98399.50;1703160;83;21025;-72
2021/12/01 08:01:33;;;;;;;21.53;10.50;;;;;;;-0.39;100.00;98396.40;1708083;83;21479;-70
2021/12/01 08:04:01;;;;;;;28.23;14.80;;;;;;;-0.39;100.00;98399.05;1703785;83;21078;-70
2021/12/01 08:06:32;;;;;;;27.10;12.60;;;;;;;-0.35;100.00;98404.92;1703335;83;21034;-71
2021/12/01 08:09:00;;;;;;;21.57;10.03;;;;;;;-0.28;100.00;98408.22;1699474;84;21042;-70
2021/12/01 08:11:27;;;;;;;21.30;9.23;;;;;;;-0.20;100.00;98408.82;1704792;83;21005;-70
2021/12/01 08:13:54;;;;;;;21.83;10.33;;;;;;;-0.12;100.00;98409.45;1703061;84;21016;-71
2021/12/01 08:16:21;;;;;;;20.03;8.90;;;;;;;-0.05;100.00;98398.60;1703560;83;21020;-71
2021/12/01 08:18:51;;;;;;;37.93;18.80;;;;;;;0.05;100.00;98397.23;1706499;83;21030;-71
2021/12/01 08:21:17;;;;;;;50.20;28.33;;;;;;;0.08;100.00;98408.91;1704693;83;21000;-71
2021/12/01 08:23:44;;;;;;;25.47;14.07;;;;;;;0.14;100.00;98407.84;1702794;83;21053;-71
2021/12/01 08:26:11;;;;;;;48.97;32.60;;;;;;;0.18;100.00;98417.70;1706409;83;20993;-71
2021/12/01 08:28:41;;;;;;;52.07;30.17;;;;;;;0.18;100.00;98421.69;1730504;81;21006;-72
2021/12/01 08:31:08;;;;;;;40.27;22.10;;;;;;;0.15;100.00;98413.98;1750696;81;20990;-74
2021/12/01 08:33:35;;;;;;;31.90;18.03;;;;;;;0.17;100.00;98409.36;1756939;81;21037;-73
2021/12/01 08:36:02;;;;;;;24.77;13.30;;;;;;;0.23;100.00;98411.45;1745663;81;21513;-72
2021/12/01 08:38:29;;;;;;;26.00;14.07;;;;;;;0.27;100.00;98412.00;1755581;82;20958;-73
2021/12/01 08:40:56;;;;;;;23.27;12.70;;;;;;;0.30;100.00;98407.70;1750736;82;20982;-69
2021/12/01 08:43:22;;;;;;;22.50;12.30;;;;;;;0.33;100.00;98404.77;1751830;79;21092;-68
2021/12/01 08:45:49;;;;;;;29.13;18.10;;;;;;;0.38;100.00;98390.53;1794613;78;20964;-68
2021/12/01 08:48:16;;;;;;;20.43;11.63;;;;;;;0.41;100.00;98386.27;1794319;79;20994;-71
2021/12/01 08:50:43;;;;;;;23.90;11.53;;;;;;;0.46;100.00;98398.63;1794946;79;21039;-69
2021/12/01 08:53:11;;;;;;;19.83;11.00;;;;;;;0.51;100.00;98392.85;1794980;80;21045;-69
2021/12/01 08:55:41;;;;;;;20.30;12.07;;;;;;;0.56;100.00;98392.75;1794907;80;21466;-69
2021/12/01 08:58:12;;;;;;;23.40;12.57;;;;;;;0.54;100.00;98394.72;1790725;80;21016;-72
2021/12/01 09:00:46;;;;;;;19.97;11.13;;;;;;;0.55;100.00;98396.91;1795640;79;21466;-72
2021/12/01 09:03:14;;;;;;;18.73;9.97;;;;;;;0.55;100.00;98395.58;1792375;80;20979;-69
2021/12/01 09:05:42;;;;;;;22.23;10.83;;;;;;;0.56;100.00;98399.90;1794931;79;21169;-68
2021/12/01 09:08:09;;;;;;;21.27;11.40;;;;;;;0.52;100.00;98385.23;1794851;80;21430;-68
2021/12/01 09:10:36;;;;;;;18.43;9.87;;;;;;;0.50;100.00;98385.87;1795058;80;20949;-69
2021/12/01 09:13:03;;;;;;;28.63;13.50;;;;;;;0.53;100.00;98382.90;1789598;79;21052;-70
2021/12/01 09:15:30;;;;;;;32.30;14.73;;;;;;;0.56;100.00;98370.64;1794987;79;21039;-69
2021/12/01 09:17:59;;;;;;;20.10;9.40;;;;;;;0.63;100.00;98369.56;1795549;79;21639;-73
2021/12/01 09:20:26;;;;;;;17.80;8.50;;;;;;;0.72;100.00;98364.67;1789683;80;20992;-72
2021/12/01 09:22:54;;;;;;;29.87;13.37;;;;;;;0.77;100.00;98365.06;1794096;79;20987;-72
2021/12/01 09:25:21;;;;;;;20.53;9.70;;;;;;;0.79;100.00;98366.25;1793817;80;21103;-70
2021/12/01 09:27:49;;;;;;;20.17;9.80;;;;;;;0.79;100.00;98372.90;1795898;79;21481;-71
2021/12/01 09:30:16;;;;;;;18.67;9.93;;;;;;;0.70;100.00;98372.80;1795134;79;21492;-71
2021/12/01 09:32:45;;;;;;;18.00;9.27;;;;;;;0.64;100.00;98367.23;1790793;79;21417;-72
2021/12/01 09:35:13;;;;;;;17.23;9.27;;;;;;;0.64;100.00;98373.88;1794966;80;20976;-75
2021/12/01 09:37:40;;;;;;;17.00;8.67;;;;;;;0.62;100.00;98357.23;1796701;79;21008;-70
2021/12/01 09:40:14;;;;;;;18.60;8.47;;;;;;;0.59;100.00;98362.87;1792771;79;20972;-70
2021/12/01 09:42:46;;;;;;;18.57;10.57;;;;;;;0.56;100.00;98356.02;1790044;80;21530;-71
2021/12/01 09:45:12;;;;;;;17.87;9.83;;;;;;;0.56;100.00;98354.18;1793306;80;21061;-72
2021/12/01 09:47:41;;;;;;;16.60;8.97;;;;;;;0.53;100.00;98356.30;1794255;80;21493;-72
2021/12/01 09:50:09;;;;;;;19.70;10.00;;;;;;;0.51;100.00;98358.28;1791171;80;21025;-71
2021/12/01 09:52:35;;;;;;;18.27;9.20;;;;;;;0.52;100.00;98360.80;1795165;79;21026;-72
2021/12/01 09:55:03;;;;;;;15.03;8.33;;;;;;;0.58;100.00;98354.53;1794368;79;21010;-71
2021/12/01 09:57:30;;;;;;;14.90;8.03;;;;;;;0.60;100.00;98350.73;1794793;78;20993;-70
2021/12/01 09:59:57;;;;;;;17.30;9.20;;;;;;;0.60;100.00;98356.05;1794899;80;20986;-74
2021/12/01 10:02:25;;;;;;;16.93;7.60;;;;;;;0.60;100.00;98341.92;1795434;80;20978;-72
2021/12/01 10:04:52;;;;;;;17.93;9.10;;;;;;;0.54;100.00;98338.87;1795139;80;20927;-73
2021/12/01 10:07:26;;;;;;;16.73;8.90;;;;;;;0.50;100.00;98349.47;1795146;79;20993;-72
2021/12/01 10:09:57;;;;;;;17.23;9.00;;;;;;;0.52;100.00;98360.80;1751456;80;20998;-70
2021/12/01 10:12:22;;;;;;;19.63;9.30;;;;;;;0.54;100.00;98358.81;1761966;80;21459;-72
2021/12/01 10:14:51;;;;;;;18.40;9.40;;;;;;;0.56;100.00;98356.02;1758809;80;21544;-72
2021/12/01 10:17:34;;;;;;;16.63;8.90;;;;;;;0.54;100.00;98357.98;1753252;81;20974;-71
2021/12/01 10:20:13;;;;;;;17.10;9.45;;;;;;;0.53;100.00;98364.28;1756547;80;21033;-71
2021/12/01 10:22:39;;;;;;;16.20;8.23;;;;;;;0.48;100.00;98358.09;1756721;80;20994;-72
2021/12/01 10:25:29;;;;;;;15.67;8.13;;;;;;;0.45;100.00;98365.53;1758293;81;20970;-71
2021/12/01 10:27:55;;;;;;;17.53;8.63;;;;;;;0.42;100.00;98355.18;1735370;82;21465;-71
2021/12/01 10:30:41;;;;;;;15.73;8.77;;;;;;;0.42;100.00;98359.17;1738790;82;21008;-71
2021/12/01 10:33:14;;;;;;;18.27;8.77;;;;;;;0.41;100.00;98360.14;1734631;82;21011;-76
2021/12/01 10:35:41;;;;;;;14.95;7.65;;;;;;;0.41;100.00;98353.02;1727222;82;21074;-75
2021/12/01 10:38:08;;;;;;;23.93;11.53;;;;;;;0.39;100.00;98355.00;1730669;82;21012;-79
2021/12/01 10:40:36;;;;;;;27.53;13.30;;;;;;;0.38;100.00;98350.15;1727067;83;21018;-78
2021/12/01 10:43:11;;;;;;;17.00;8.63;;;;;;;0.40;100.00;98343.36;1727106;82;21555;-71
2021/12/01 10:45:47;;;;;;;23.77;10.27;;;;;;;0.39;100.00;98353.67;1729076;82;21043;-68
2021/12/01 10:48:22;;;;;;;24.70;14.73;;;;;;;0.40;100.00;98351.84;1743563;82;21090;-69
2021/12/01 10:50:49;;;;;;;20.03;10.10;;;;;;;0.39;100.00;98345.69;1743472;82;21035;-70
2021/12/01 10:53:22;;;;;;;26.83;10.90;;;;;;;0.42;100.00;98345.38;1744009;82;21055;-71
2021/12/01 10:55:55;;;;;;;;;;;;;;;0.42;100.00;98340.05;1746696;82;21070;-68
2021/12/01 10:58:22;;;;;;;18.90;8.75;;;;;;;0.38;100.00;98337.36;1709385;83;20114;-72
2021/12/01 11:00:51;;;;;;;21.80;10.60;;;;;;;0.35;100.00;98342.96;1709523;84;21031;-72
2021/12/01 11:03:24;;;;;;;19.63;9.97;;;;;;;0.37;100.00;98343.64;1709333;84;21083;-75
2021/12/01 11:05:57;;;;;;;39.87;19.43;;;;;;;0.36;100.00;98345.48;1630934;88;21015;-72
2021/12/01 11:08:31;;;;;;;18.40;10.00;;;;;;;0.39;100.00;98341.70;1631177;88;21031;-71
2021/12/01 11:11:10;;;;;;;18.97;9.70;;;;;;;0.44;100.00;98330.60;1631172;88;21500;-75
2021/12/01 11:13:43;;;;;;;19.07;9.17;;;;;;;0.43;100.00;98339.08;1631023;88;20991;-73
2021/12/01 11:16:12;;;;;;;17.23;8.73;;;;;;;0.43;100.00;98336.92;1630834;88;21078;-74
2021/12/01 11:18:43;;;;;;;17.47;9.10;;;;;;;0.42;100.00;98333.91;1630921;88;21086;-74
2021/12/01 11:21:13;;;;;;;20.03;10.23;;;;;;;0.42;100.00;98337.39;1626223;88;21570;-73
2021/12/01 11:23:46;;;;;;;15.57;8.17;;;;;;;0.45;100.00;98331.79;1609392;89;21132;-71
2021/12/01 11:26:17;;;;;;;16.60;8.70;;;;;;;0.48;100.00;98329.31;1571791;91;21118;-72
2021/12/01 11:28:52;;;;;;;16.30;8.35;;;;;;;0.47;100.00;98330.31;1572009;91;21144;-72